createdAt,value
2018-12-14T00:00:55.738Z,1.91
2018-12-14T00:06:50.743Z,1.86
2018-12-14T00:12:45.759Z,2.33
2018-12-14T00:18:40.742Z,2.02
2018-12-14T00:24:35.744Z,2.08
2018-12-14T00:30:30.821Z,2.91
2018-12-14T00:36:25.755Z,2.69
2018-12-14T00:42:20.749Z,3.08
2018-12-14T00:48:15.761Z,3.29
2018-12-14T00:54:10.767Z,2.5
2018-12-14T01:00:05.754Z,2.57
2018-12-14T01:06:00.768Z,2.2
2018-12-14T01:11:58.264Z,1.94
2018-12-14T01:17:50.767Z,1.98
2018-12-14T01:23:45.808Z,1.77
2018-12-14T01:29:40.792Z,1.59
2018-12-14T01:35:35.811Z,1.57
2018-12-14T01:41:30.766Z,1.48
2018-12-14T01:47:25.771Z,1.48
2018-12-14T01:53:20.789Z,1.35
2018-12-14T01:59:15.818Z,1.42
2018-12-14T02:05:10.804Z,1.47
2018-12-14T02:11:05.818Z,1.49
2018-12-14T02:17:00.799Z,1.31
2018-12-14T02:22:55.803Z,1.53
2018-12-14T02:28:50.791Z,1.16
2018-12-14T02:34:45.821Z,1.16
2018-12-14T02:40:40.798Z,1.37
2018-12-14T02:46:35.832Z,1.24
2018-12-14T02:52:30.811Z,1.13
2018-12-14T02:58:25.854Z,0.97
2018-12-14T03:04:20.845Z,1.23
2018-12-14T03:10:15.878Z,1.11
2018-12-14T03:16:10.866Z,1.16
2018-12-14T03:22:05.854Z,1.2
2018-12-14T03:28:00.842Z,1.37
2018-12-14T03:33:55.824Z,1.53
2018-12-14T03:39:50.852Z,1.72
2018-12-14T03:45:45.848Z,1.78
2018-12-14T03:51:40.857Z,2.41
2018-12-14T03:57:35.860Z,1.94
2018-12-14T04:03:30.850Z,2.23
2018-12-14T04:09:25.872Z,2.87
2018-12-14T04:15:20.861Z,2.7
2018-12-14T04:21:15.883Z,2.58
2018-12-14T04:27:10.872Z,2.58
2018-12-14T04:33:05.895Z,2.85
2018-12-14T04:39:00.901Z,2.45
2018-12-14T04:44:55.923Z,3.29
2018-12-14T04:50:50.886Z,2.84
2018-12-14T04:56:45.879Z,2.51
2018-12-14T05:02:40.884Z,2.54
2018-12-14T05:08:35.920Z,2.86
2018-12-14T05:14:30.904Z,4.22
2018-12-14T05:20:25.908Z,4.05
2018-12-14T05:26:20.899Z,4.46
2018-12-14T05:32:15.916Z,3.68
2018-12-14T05:38:10.942Z,3.3
2018-12-14T05:44:05.919Z,3.2
2018-12-14T05:50:00.914Z,2.61
2018-12-14T05:55:55.910Z,2.88
2018-12-14T06:01:50.902Z,2.8
2018-12-14T06:07:45.937Z,3.42
2018-12-14T06:13:40.919Z,3.03
2018-12-14T06:19:35.949Z,3.23
2018-12-14T06:25:30.928Z,3.07
2018-12-14T06:31:25.933Z,3.85
2018-12-14T06:37:20.933Z,3.33
2018-12-14T06:43:15.935Z,4.09
2018-12-14T06:49:10.944Z,4.19
2018-12-14T06:55:05.939Z,2.22
2018-12-14T07:01:00.954Z,3.26
2018-12-14T07:06:55.954Z,3.78
2018-12-14T07:12:50.932Z,3.41
2018-12-14T07:18:45.951Z,3.06
2018-12-14T07:24:40.947Z,4.46
2018-12-14T07:30:35.991Z,4.02
2018-12-14T07:36:30.972Z,4.39
2018-12-14T07:42:25.961Z,4.52
2018-12-14T07:48:20.996Z,4.58
2018-12-14T07:54:15.999Z,4.81
2018-12-14T08:00:10.969Z,4.7
2018-12-14T08:06:05.996Z,4.38
2018-12-14T08:12:00.970Z,5.21
2018-12-14T08:17:55.989Z,5.17
2018-12-14T08:23:50.977Z,4.92
2018-12-14T08:29:46.019Z,5.69
2018-12-14T08:35:41.022Z,6.77
2018-12-14T08:41:36.022Z,5.59
2018-12-14T08:47:31.021Z,6.95
2018-12-14T08:53:26.023Z,5.92
2018-12-14T08:59:20.996Z,7.41
2018-12-14T09:05:16.014Z,7.49
2018-12-14T09:11:11.015Z,5.65
2018-12-14T09:17:06.024Z,5.02
2018-12-14T09:23:01.007Z,5.06
2018-12-14T09:28:56.025Z,6.75
2018-12-14T09:34:51.044Z,6.56
2018-12-14T09:40:46.038Z,5.71
2018-12-14T09:46:41.026Z,5.36
2018-12-14T09:52:36.044Z,5.49
2018-12-14T09:58:31.055Z,3.75
2018-12-14T10:04:26.036Z,4.87
2018-12-14T10:10:21.037Z,4.17
2018-12-14T10:16:16.032Z,6.7
2018-12-14T10:22:11.080Z,4.91
2018-12-14T10:28:06.070Z,6.48
2018-12-14T10:34:01.050Z,6.15
2018-12-14T10:39:56.047Z,6.04
2018-12-14T10:45:51.042Z,4.26
2018-12-14T10:51:46.087Z,6.29
2018-12-14T10:57:41.074Z,6.31
2018-12-14T11:03:36.058Z,6.09
2018-12-14T11:09:31.080Z,5.95
2018-12-14T11:15:26.069Z,5.22
2018-12-14T11:21:21.063Z,5.41
2018-12-14T11:27:16.083Z,6.91
2018-12-14T11:33:11.085Z,7.26
2018-12-14T11:39:06.065Z,6.84
2018-12-14T11:45:01.087Z,7.75
2018-12-14T11:50:56.091Z,9.82
2018-12-14T11:56:51.079Z,7.66
2018-12-14T12:02:46.112Z,8.89
2018-12-14T12:08:41.116Z,7.69
2018-12-14T12:14:36.103Z,8.78
2018-12-14T12:20:31.113Z,10.26
2018-12-14T12:26:26.113Z,7.82
2018-12-14T12:32:21.112Z,5.86
2018-12-14T12:38:16.184Z,6.56
2018-12-14T12:44:11.102Z,9.17
2018-12-14T12:50:06.126Z,7.44
2018-12-14T12:56:01.103Z,9.62
2018-12-14T13:01:56.217Z,9.38
2018-12-14T13:07:51.108Z,7.48
2018-12-14T13:13:46.124Z,8.02
2018-12-14T13:19:41.116Z,8.73
2018-12-14T13:25:36.122Z,9.02
2018-12-14T13:31:31.127Z,9.56
2018-12-14T13:37:26.129Z,8.75
2018-12-14T13:43:21.201Z,7.86
2018-12-14T13:49:16.197Z,7.37
2018-12-14T13:55:11.206Z,7.46
2018-12-14T14:01:06.173Z,7.53
2018-12-14T14:07:01.145Z,8.56
2018-12-14T14:12:56.176Z,7.92
2018-12-14T14:18:51.191Z,7.9
2018-12-14T14:24:46.175Z,10.61
2018-12-14T14:30:41.143Z,8.63
2018-12-14T14:36:36.160Z,7.1
2018-12-14T14:42:31.179Z,7.66
2018-12-14T14:48:26.176Z,7.65
2018-12-14T14:54:21.167Z,10.74
2018-12-14T15:00:16.182Z,7.95
2018-12-14T15:06:11.179Z,7.92
2018-12-14T15:12:06.229Z,8.47
2018-12-14T15:18:01.183Z,7.71
2018-12-14T15:23:56.244Z,9.31
2018-12-14T15:29:51.228Z,8.18
2018-12-14T15:35:46.196Z,8.9
2018-12-14T15:41:41.207Z,7.98
2018-12-14T15:47:36.217Z,10.27
2018-12-14T15:53:31.217Z,9.46
2018-12-14T15:59:26.262Z,8.59
2018-12-14T16:05:21.225Z,7.77
2018-12-14T16:11:16.229Z,10.78
2018-12-14T16:17:11.232Z,9.74
2018-12-14T16:23:06.222Z,8.69
2018-12-14T16:29:01.225Z,11.54
2018-12-14T16:34:56.233Z,8.1
2018-12-14T16:40:51.242Z,8.64
2018-12-14T16:46:46.253Z,8.37
2018-12-14T16:52:41.260Z,9.93
2018-12-14T16:58:36.221Z,9.82
2018-12-14T17:04:31.247Z,9.65
2018-12-14T17:10:26.256Z,9.61
2018-12-14T17:16:21.241Z,8.3
2018-12-14T17:22:16.252Z,11.33
2018-12-14T17:28:11.271Z,10.7
2018-12-14T17:34:06.277Z,8.33
2018-12-14T17:40:01.237Z,8.63
2018-12-14T17:45:56.299Z,7.5
2018-12-14T17:51:51.259Z,10.17
2018-12-14T17:57:46.293Z,8.95
2018-12-14T18:03:41.340Z,7.96
2018-12-14T18:09:36.289Z,9.86
2018-12-14T18:15:31.269Z,8.91
2018-12-14T18:21:26.320Z,10.68
2018-12-14T18:27:21.295Z,9.61
2018-12-14T18:33:16.312Z,8.15
2018-12-14T18:39:11.336Z,5.45
2018-12-14T18:45:06.305Z,6.64
2018-12-14T18:51:01.301Z,6.35
2018-12-14T18:56:56.348Z,7.42
2018-12-14T19:02:51.318Z,6.24
2018-12-14T19:08:46.341Z,6.57
2018-12-14T19:14:41.332Z,6.13
2018-12-14T19:20:36.337Z,5.81
2018-12-14T19:26:31.328Z,6.16
2018-12-14T19:32:26.338Z,6.35
2018-12-14T19:38:21.323Z,5.97
2018-12-14T19:44:16.348Z,6.59
2018-12-14T19:50:11.334Z,5.69
2018-12-14T19:56:06.344Z,5.43
2018-12-14T20:02:01.361Z,6.62
2018-12-14T20:07:56.383Z,5.66
2018-12-14T20:13:51.346Z,6.61
2018-12-14T20:19:46.333Z,5.53
2018-12-14T20:25:41.347Z,5.79
2018-12-14T20:31:36.362Z,5.63
2018-12-14T20:37:31.407Z,5.75
2018-12-14T20:43:26.356Z,5.38
2018-12-14T20:49:21.383Z,6.04
2018-12-14T20:55:16.389Z,5.07
2018-12-14T21:01:11.358Z,6.17
2018-12-14T21:07:06.389Z,5.31
2018-12-14T21:13:01.371Z,4.36
2018-12-14T21:18:56.391Z,5.51
2018-12-14T21:24:51.389Z,5.15
2018-12-14T21:30:46.407Z,4.78
2018-12-14T21:36:41.427Z,4.82
2018-12-14T21:42:36.435Z,4.36
2018-12-14T21:48:31.437Z,5.57
2018-12-14T21:54:26.388Z,5.06
2018-12-14T22:00:21.417Z,6.52
2018-12-14T22:06:16.410Z,5.17
2018-12-14T22:12:11.403Z,5.43
2018-12-14T22:18:06.413Z,5.94
2018-12-14T22:24:01.425Z,5.26
2018-12-14T22:29:56.417Z,5.81
2018-12-14T22:35:51.420Z,5.3
2018-12-14T22:41:46.428Z,6.58
2018-12-14T22:47:41.417Z,6.18
2018-12-14T22:53:36.427Z,6.78
2018-12-14T22:59:31.449Z,7.02
2018-12-14T23:05:26.441Z,6.93
2018-12-14T23:11:21.701Z,7.03
2018-12-14T23:17:16.424Z,6.97
2018-12-14T23:23:11.443Z,7.75
2018-12-14T23:29:06.453Z,7.83
2018-12-14T23:35:01.431Z,8.5
2018-12-14T23:40:56.461Z,9.13
2018-12-14T23:46:51.450Z,8.89
2018-12-14T23:52:46.471Z,9.27
2018-12-14T23:58:41.448Z,7.87
